Terminal Aerodrome Forecast
Issued by NWS

Home | Current Version | Previous Version | Text Only | Print | Product List | Glossary On
Versions: 1 2 3 4 5 6 7 8 9 10 11 12
670
FTAK31 PAJN 101126
TAFAWG
TAF
PAWG 101126Z 1012/1112 09010G20KT P6SM SKC WS020/05030KT
     FM101800 09015G25KT P6SM SKC WS020/05030KT
      AMD LTD TO CLD VIS AND WIND 1012/1015=

USA.gov is the U.S. government's official web portal to all federal, state and local government web resources and services.